Time;durP1;ratioP1;P1;durP2;ratioP2;P2;SDS_P1;SDS_P2;PMS_P1;PMS_P2;Temp;Humidity;BMP_temperature;BMP_pressure;BME280_temperature;BME280_humidity;BME280_pressure;Samples;Min_cycle;Max_cycle;Signal;HPM_P1;HPM_P2
2022/10/03 05:10:47;;;;;;;7.57;5.30;;;11.70;99.90;;;;;;10257156;23;20044;-78
2022/10/03 05:16:00;;;;;;;8.27;5.30;;;11.80;99.90;;;;;;10220174;29;20147;-78
2022/10/03 05:21:09;;;;;;;8.68;5.70;;;11.70;99.90;;;;;;10251268;28;20047;-78
2022/10/03 05:26:24;;;;;;;10.85;7.15;;;11.80;99.90;;;;;;10216717;29;20087;-78
2022/10/03 05:31:36;;;;;;;10.30;6.80;;;11.80;99.90;;;;;;10217894;29;20043;-77
2022/10/03 05:37:03;;;;;;;9.88;6.40;;;11.90;99.90;;;;;;10231086;29;20134;-78
2022/10/03 05:42:35;;;;;;;9.45;6.45;;;11.90;99.90;;;;;;10216598;29;20044;-77
2022/10/03 05:47:50;;;;;;;9.85;6.25;;;11.90;99.90;;;;;;10247863;29;20058;-78
2022/10/03 05:53:18;;;;;;;9.77;6.60;;;11.80;99.90;;;;;;10234810;29;20102;-78
2022/10/03 05:58:55;;;;;;;14.32;8.43;;;11.70;99.90;;;;;;10220211;29;20465;-78
2022/10/03 06:04:43;;;;;;;10.90;7.28;;;11.70;99.90;;;;;;10221598;29;20171;-79
2022/10/03 06:10:21;;;;;;;12.32;8.07;;;11.70;99.90;;;;;;10182891;29;20102;-75
2022/10/03 06:15:57;;;;;;;10.85;7.75;;;11.80;99.90;;;;;;10211164;28;20147;-76
2022/10/03 06:21:43;;;;;;;11.68;7.88;;;11.60;99.90;;;;;;10134681;29;20178;-78
2022/10/03 06:27:19;;;;;;;14.45;7.88;;;11.80;99.90;;;;;;10221728;29;20083;-78
2022/10/03 06:33:29;;;;;;;11.82;7.45;;;11.80;99.90;;;;;;10216743;29;20074;-77
2022/10/03 06:39:25;;;;;;;12.60;7.80;;;11.80;99.90;;;;;;10161351;28;20150;-77
2022/10/03 06:44:46;;;;;;;14.20;8.10;;;11.90;99.90;;;;;;10210859;29;20159;-78
2022/10/03 06:50:37;;;;;;;11.38;7.65;;;11.90;99.90;;;;;;10215873;29;20082;-77
2022/10/03 06:56:07;;;;;;;13.85;8.52;;;12.10;99.90;;;;;;10219043;29;20504;-77
2022/10/03 07:01:44;;;;;;;17.85;9.93;;;12.20;99.90;;;;;;10217139;29;20381;-77
2022/10/03 07:07:09;;;;;;;15.73;10.13;;;12.20;99.90;;;;;;10228953;28;20086;-76
2022/10/03 07:12:51;;;;;;;17.65;10.27;;;12.20;99.90;;;;;;10257159;28;20506;-76
2022/10/03 07:18:14;;;;;;;17.15;9.98;;;12.20;99.90;;;;;;10250714;28;20428;-77
2022/10/03 07:24:02;;;;;;;17.20;10.63;;;12.30;99.90;;;;;;10252684;29;20054;-74
2022/10/03 07:29:42;;;;;;;21.55;12.23;;;12.30;99.90;;;;;;10248939;28;20126;-75
2022/10/03 07:35:21;;;;;;;20.40;12.10;;;12.40;99.90;;;;;;10257438;28;20101;-76
2022/10/03 07:41:01;;;;;;;20.75;12.30;;;12.50;99.90;;;;;;10290781;28;20055;-76
2022/10/03 07:46:49;;;;;;;22.75;12.43;;;12.60;99.90;;;;;;10252497;28;20055;-76
2022/10/03 07:52:22;;;;;;;25.02;14.05;;;12.70;99.90;;;;;;10235676;28;20040;-75
2022/10/03 07:57:39;;;;;;;27.67;14.82;;;12.70;99.90;;;;;;10272520;28;20072;-76
2022/10/03 08:03:36;;;;;;;25.13;14.20;;;12.70;99.90;;;;;;10251799;29;20093;-75
2022/10/03 08:09:30;;;;;;;23.70;14.07;;;12.80;99.90;;;;;;10255988;28;20082;-76
2022/10/03 08:14:51;;;;;;;24.98;13.82;;;12.60;99.90;;;;;;10268036;28;20050;-74
2022/10/03 08:20:23;;;;;;;25.90;14.48;;;12.80;99.90;;;;;;10294971;28;20082;-75
2022/10/03 08:25:30;;;;;;;25.17;13.70;;;12.80;99.90;;;;;;10246436;28;20058;-76
2022/10/03 08:30:54;;;;;;;22.77;13.23;;;12.90;99.90;;;;;;10276194;28;20583;-76
2022/10/03 08:36:35;;;;;;;21.73;13.15;;;13.00;99.90;;;;;;10244901;28;20467;-76
2022/10/03 08:42:33;;;;;;;24.95;14.38;;;13.00;99.90;;;;;;10229358;28;20127;-76
2022/10/03 08:48:55;;;;;;;23.23;13.85;;;13.00;99.90;;;;;;10261032;28;20083;-77
2022/10/03 08:54:32;;;;;;;28.02;16.90;;;13.20;99.90;;;;;;10212846;29;20774;-78
2022/10/03 09:00:18;;;;;;;23.48;13.50;;;13.20;99.90;;;;;;10248075;28;20278;-76
2022/10/03 09:05:57;;;;;;;18.95;11.75;;;13.30;99.90;;;;;;10291138;28;20109;-80
2022/10/03 09:11:53;;;;;;;21.67;11.80;;;13.20;99.90;;;;;;10226255;28;20138;-78
2022/10/03 09:17:12;;;;;;;21.42;12.55;;;13.20;99.90;;;;;;10238737;28;20089;-78
2022/10/03 09:22:33;;;;;;;20.15;10.75;;;13.40;99.90;;;;;;10288054;28;20116;-78
2022/10/03 09:28:30;;;;;;;23.60;11.60;;;13.30;99.90;;;;;;10283895;28;20059;-76
2022/10/03 09:34:06;;;;;;;15.93;11.40;;;13.40;99.90;;;;;;10239023;28;20110;-80
2022/10/03 09:39:49;;;;;;;20.02;11.48;;;13.40;99.90;;;;;;10242001;28;20462;-78
2022/10/03 09:45:17;;;;;;;20.23;10.35;;;13.40;99.90;;;;;;10280315;28;20059;-78
2022/10/03 09:51:10;;;;;;;18.40;9.45;;;13.60;99.90;;;;;;10274720;28;20105;-78
2022/10/03 09:56:54;;;;;;;19.05;11.23;;;13.80;99.90;;;;;;10270405;28;20505;-75
2022/10/03 10:02:17;;;;;;;18.25;9.70;;;13.90;99.90;;;;;;10228208;28;20130;-78
2022/10/03 10:08:08;;;;;;;14.57;9.32;;;14.00;99.90;;;;;;10288053;28;20078;-77
2022/10/03 10:14:05;;;;;;;16.48;9.75;;;14.00;99.90;;;;;;10286963;28;20162;-79
2022/10/03 10:19:50;;;;;;;17.13;9.80;;;14.00;99.90;;;;;;10287720;28;20572;-77
2022/10/03 10:25:37;;;;;;;12.25;7.47;;;13.80;99.90;;;;;;10284861;28;20121;-77
2022/10/03 10:31:22;;;;;;;12.10;7.57;;;13.80;99.90;;;;;;10243694;28;20420;-77
2022/10/03 10:37:32;;;;;;;12.77;7.75;;;14.20;99.90;;;;;;10286598;28;20101;-77
2022/10/03 10:43:38;;;;;;;12.07;6.75;;;14.40;99.90;;;;;;10221540;28;20056;-77
2022/10/03 10:49:37;;;;;;;10.80;6.50;;;14.60;99.90;;;;;;10220555;28;20050;-80
2022/10/03 10:55:11;;;;;;;15.05;6.70;;;14.60;99.90;;;;;;10273509;28;20055;-79
2022/10/03 11:00:25;;;;;;;12.57;6.97;;;14.50;99.90;;;;;;10284301;28;20158;-83
2022/10/03 11:06:31;;;;;;;13.32;7.50;;;14.50;99.90;;;;;;10256334;28;20050;-85
2022/10/03 11:12:28;;;;;;;13.85;5.97;;;14.70;99.90;;;;;;10287117;28;20097;-76
2022/10/03 11:18:16;;;;;;;12.35;5.75;;;14.90;99.90;;;;;;10252852;28;20102;-77
2022/10/03 11:24:14;;;;;;;10.10;5.40;;;15.20;99.90;;;;;;10267887;28;20075;-77
2022/10/03 11:30:06;;;;;;;10.25;4.88;;;15.40;99.90;;;;;;10264754;28;20098;-77
2022/10/03 11:36:00;;;;;;;7.72;3.92;;;15.50;99.90;;;;;;10247652;28;20142;-78
2022/10/03 11:41:15;;;;;;;10.07;4.55;;;15.50;99.40;;;;;;10221583;28;20160;-77
2022/10/03 11:46:43;;;;;;;9.07;4.57;;;15.40;99.90;;;;;;10225348;28;20051;-77
2022/10/03 11:51:49;;;;;;;;;;;15.50;99.90;;;;;;10265015;28;20051;-77
2022/10/03 11:57:01;;;;;;;11.05;5.00;;;15.60;99.90;;;;;;10255592;28;19923;-76
2022/10/03 12:02:16;;;;;;;9.65;4.72;;;15.60;99.90;;;;;;10258794;28;20051;-75
2022/10/03 12:10:18;;;;;;;9.05;4.60;;;15.70;99.90;;;;;;10530296;27;20401;-78
2022/10/03 12:15:33;;;;;;;9.50;4.95;;;15.80;99.90;;;;;;10493389;28;20053;-77
2022/10/03 12:21:08;;;;;;;16.67;9.07;;;16.00;99.80;;;;;;10493960;28;20494;-75
2022/10/03 12:26:17;;;;;;;12.18;5.70;;;16.10;99.90;;;;;;10498628;28;20048;-79
2022/10/03 12:31:23;;;;;;;;;;;16.20;99.90;;;;;;10487215;28;20458;-78
2022/10/03 12:36:31;;;;;;;11.63;5.03;;;16.50;99.90;;;;;;10493925;28;19963;-78
2022/10/03 12:41:56;;;;;;;9.52;4.82;;;16.50;99.50;;;;;;10493324;28;20056;-78
2022/10/03 12:47:16;;;;;;;11.95;5.18;;;16.60;99.70;;;;;;10495693;28;20558;-79
2022/10/03 12:52:25;;;;;;;11.70;5.72;;;16.50;99.20;;;;;;10483386;28;20109;-78
2022/10/03 12:57:56;;;;;;;11.52;4.90;;;16.70;98.80;;;;;;10484360;28;20123;-78
2022/10/03 13:03:18;;;;;;;11.43;4.93;;;17.10;99.80;;;;;;10484582;28;20044;-78
2022/10/03 13:08:39;;;;;;;7.53;4.30;;;17.80;98.70;;;;;;10476419;28;20424;-78
2022/10/03 13:14:00;;;;;;;9.50;4.80;;;18.30;97.90;;;;;;10483773;28;20045;-78
2022/10/03 13:19:09;;;;;;;9.35;3.88;;;19.10;95.50;;;;;;10506154;28;20489;-79
2022/10/03 13:24:31;;;;;;;9.43;3.85;;;19.20;94.20;;;;;;10493778;28;20059;-79
2022/10/03 13:29:41;;;;;;;9.68;4.45;;;19.40;93.30;;;;;;10493135;28;20512;-78
2022/10/03 13:35:57;;;;;;;11.40;4.60;;;19.90;94.40;;;;;;10495169;28;20059;-78
2022/10/03 13:40:28;;;;;;;8.23;3.60;;;20.30;92.00;;;;;;10481569;28;20048;-78
2022/10/03 13:45:33;;;;;;;7.53;3.53;;;19.60;91.90;;;;;;10493016;28;20072;-79
2022/10/03 13:50:47;;;;;;;8.00;3.55;;;19.70;90.90;;;;;;10496260;28;20049;-79
2022/10/03 13:55:51;;;;;;;9.07;4.15;;;20.40;90.40;;;;;;10464364;28;20745;-79
2022/10/03 14:01:14;;;;;;;8.63;3.60;;;20.80;88.30;;;;;;10454268;28;20501;-80
2022/10/03 14:06:29;;;;;;;9.95;3.38;;;21.00;85.50;;;;;;10447839;28;20056;-80
2022/10/03 14:11:43;;;;;;;8.98;3.10;;;20.70;85.00;;;;;;10462509;28;20107;-79
2022/10/03 14:16:57;;;;;;;8.38;2.80;;;21.30;86.60;;;;;;10453474;28;20076;-80
2022/10/03 14:22:17;;;;;;;6.38;2.90;;;22.10;79.20;;;;;;10416244;28;20149;-80
2022/10/03 14:27:50;;;;;;;6.50;2.85;;;22.70;79.30;;;;;;10454205;28;20144;-79
2022/10/03 14:33:09;;;;;;;7.70;2.80;;;23.80;71.00;;;;;;10451992;28;20481;-78
2022/10/03 14:39:12;;;;;;;7.65;2.50;;;25.40;64.80;;;;;;10451434;28;20110;-79
2022/10/03 14:44:20;;;;;;;8.63;2.60;;;27.70;58.10;;;;;;10405900;28;20143;-79
2022/10/03 14:49:27;;;;;;;;;;;29.70;54.20;;;;;;10448291;28;20084;-80
2022/10/03 14:54:36;;;;;;;5.90;2.20;;;29.50;52.70;;;;;;10452042;28;20292;-80
2022/10/03 14:59:38;;;;;;;6.93;2.35;;;29.60;50.60;;;;;;10451835;28;20056;-80
2022/10/03 15:04:41;;;;;;;5.93;2.55;;;30.60;49.50;;;;;;10453693;28;20534;-79
2022/10/03 15:09:49;;;;;;;7.85;2.15;;;31.70;46.50;;;;;;10473499;28;20091;-79
2022/10/03 15:15:00;;;;;;;5.63;2.30;;;32.20;45.60;;;;;;10453563;28;20049;-79
2022/10/03 15:20:06;;;;;;;6.50;2.15;;;32.20;46.00;;;;;;10486114;28;20136;-79
2022/10/03 15:25:16;;;;;;;6.00;2.55;;;32.50;44.60;;;;;;10459385;28;20138;-80
2022/10/03 15:30:22;;;;;;;5.88;2.10;;;31.40;46.00;;;;;;10472208;28;20765;-80
2022/10/03 15:35:29;;;;;;;7.43;2.22;;;31.20;46.00;;;;;;10462441;28;20083;-80
2022/10/03 15:40:38;;;;;;;6.13;2.10;;;30.90;45.90;;;;;;10434486;28;20056;-79
2022/10/03 15:45:40;;;;;;;6.10;2.50;;;30.30;47.00;;;;;;10466764;28;20050;-79
2022/10/03 15:50:51;;;;;;;11.05;5.03;;;30.10;46.70;;;;;;10480379;28;20159;-80
2022/10/03 15:56:00;;;;;;;12.52;5.93;;;29.70;48.20;;;;;;10480059;28;20135;-80
2022/10/03 16:01:10;;;;;;;6.93;2.47;;;29.70;48.80;;;;;;10466252;28;20470;-80
2022/10/03 16:06:20;;;;;;;5.65;2.00;;;29.70;48.10;;;;;;10469078;28;20502;-78
2022/10/03 16:11:26;;;;;;;5.18;2.15;;;29.20;47.20;;;;;;10490603;28;20084;-79
2022/10/03 16:16:36;;;;;;;6.10;2.40;;;28.80;48.40;;;;;;10484781;28;20076;-76
2022/10/03 16:21:46;;;;;;;5.95;2.25;;;28.00;49.10;;;;;;10451228;28;20128;-79
2022/10/03 16:26:55;;;;;;;5.75;2.30;;;26.80;50.20;;;;;;10453953;28;20088;-78
2022/10/03 16:32:03;;;;;;;7.05;2.80;;;25.40;53.30;;;;;;10476714;28;20080;-76
2022/10/03 16:37:18;;;;;;;5.28;2.50;;;24.90;54.60;;;;;;10473176;28;20453;-77
2022/10/03 16:42:25;;;;;;;8.70;2.65;;;24.30;55.30;;;;;;10473579;28;20052;-77
2022/10/03 16:47:35;;;;;;;16.35;8.65;;;23.20;58.10;;;;;;10479785;28;20052;-78
2022/10/03 16:52:41;;;;;;;8.30;3.65;;;22.50;60.10;;;;;;10475878;28;20044;-77
2022/10/03 16:57:48;;;;;;;9.43;3.28;;;21.70;63.30;;;;;;10497855;28;20048;-79
2022/10/03 17:02:50;;;;;;;8.23;2.90;;;21.20;66.00;;;;;;10480371;28;20082;-78
2022/10/03 17:08:00;;;;;;;11.02;3.05;;;20.60;68.30;;;;;;10497418;28;20467;-77
2022/10/03 17:13:10;;;;;;;5.43;2.65;;;20.20;70.80;;;;;;10491554;28;20045;-78
2022/10/03 17:18:24;;;;;;;5.13;2.75;;;19.60;72.90;;;;;;10489483;28;20069;-80
2022/10/03 17:23:37;;;;;;;9.82;3.50;;;19.00;76.30;;;;;;10446582;28;20140;-78
2022/10/03 17:28:44;;;;;;;9.13;3.50;;;18.60;79.80;;;;;;10418315;28;20144;-80
2022/10/03 17:33:52;;;;;;;9.98;3.60;;;18.30;83.80;;;;;;10479519;28;20076;-78
2022/10/03 17:39:03;;;;;;;7.50;3.13;;;18.10;87.80;;;;;;10476000;28;20126;-80
2022/10/03 17:44:22;;;;;;;6.45;3.50;;;17.80;90.10;;;;;;10477026;28;20053;-80
2022/10/03 17:49:42;;;;;;;6.38;3.30;;;17.70;91.70;;;;;;10483367;28;20056;-81
2022/10/03 17:54:50;;;;;;;11.85;3.45;;;17.50;92.60;;;;;;10496646;28;20072;-83
2022/10/03 18:00:01;;;;;;;9.90;3.50;;;17.30;93.40;;;;;;10491326;28;20135;-79
2022/10/03 18:05:14;;;;;;;9.60;3.78;;;17.10;94.20;;;;;;10448698;28;20102;-79
2022/10/03 18:10:24;;;;;;;8.90;3.60;;;16.90;94.80;;;;;;10475229;28;20080;-79
2022/10/03 18:15:51;;;;;;;9.98;4.00;;;16.70;95.60;;;;;;10453957;28;20139;-78
2022/10/03 18:21:00;;;;;;;7.43;3.85;;;16.40;96.20;;;;;;10443064;28;20123;-80
2022/10/03 18:26:12;;;;;;;8.13;3.90;;;16.40;96.70;;;;;;10448206;28;20141;-79
2022/10/03 18:31:18;;;;;;;8.45;4.05;;;16.20;97.00;;;;;;10414346;28;20089;-80
2022/10/03 18:36:25;;;;;;;8.27;3.95;;;16.10;97.50;;;;;;10459352;28;20176;-80
2022/10/03 18:41:29;;;;;;;9.60;3.95;;;15.90;97.90;;;;;;10475959;28;20086;-79
2022/10/03 18:46:39;;;;;;;58.45;29.60;;;15.90;98.10;;;;;;10489527;28;20072;-79
2022/10/03 18:51:44;;;;;;;13.20;7.47;;;15.80;98.60;;;;;;10494385;28;20099;-79
2022/10/03 18:57:04;;;;;;;10.50;6.25;;;15.60;98.70;;;;;;10461753;28;20415;-80
2022/10/03 19:02:21;;;;;;;9.23;5.13;;;15.40;99.30;;;;;;10419048;28;20803;-81
2022/10/03 19:07:28;;;;;;;8.43;4.50;;;15.20;99.60;;;;;;10451589;28;20482;-82
2022/10/03 19:12:38;;;;;;;8.73;4.30;;;15.20;99.50;;;;;;10452224;28;20053;-80
2022/10/03 19:17:54;;;;;;;9.25;4.53;;;15.00;99.60;;;;;;10462541;28;20068;-81
2022/10/03 19:23:04;;;;;;;8.93;4.15;;;14.90;99.80;;;;;;10493281;28;20541;-80
2022/10/03 19:28:18;;;;;;;7.88;3.55;;;14.80;99.80;;;;;;10479605;28;20080;-81
2022/10/03 19:33:24;;;;;;;7.60;4.30;;;14.50;99.90;;;;;;10483562;28;20060;-79
2022/10/03 19:38:31;;;;;;;9.63;4.00;;;14.10;99.90;;;;;;10441871;28;20128;-74
2022/10/03 19:43:40;;;;;;;9.05;4.07;;;13.80;99.90;;;;;;10490644;28;20068;-77
2022/10/03 19:48:49;;;;;;;10.18;3.80;;;13.60;99.90;;;;;;10488830;28;20113;-77
2022/10/03 19:53:53;;;;;;;11.18;4.45;;;13.40;99.90;;;;;;10478020;28;20147;-76
2022/10/03 19:59:04;;;;;;;9.98;4.43;;;13.40;99.90;;;;;;10483267;28;20469;-76
2022/10/03 20:04:06;;;;;;;9.57;4.88;;;13.40;99.90;;;;;;10459578;28;20099;-77
2022/10/03 20:09:21;;;;;;;11.15;4.55;;;13.50;99.90;;;;;;10450989;28;20061;-79
2022/10/03 20:14:31;;;;;;;10.38;5.25;;;13.50;99.90;;;;;;10472423;28;20470;-78
2022/10/03 20:19:41;;;;;;;14.90;5.32;;;13.40;99.90;;;;;;10489941;28;20135;-79
2022/10/03 20:24:45;;;;;;;9.27;5.32;;;13.40;99.90;;;;;;10484594;28;20048;-78
2022/10/03 20:30:03;;;;;;;8.07;4.85;;;13.30;99.90;;;;;;10452057;28;20084;-78
2022/10/03 20:35:06;;;;;;;9.27;4.93;;;13.30;99.90;;;;;;10497338;28;20473;-78
2022/10/03 20:40:26;;;;;;;10.88;4.57;;;13.20;99.90;;;;;;10471136;28;20056;-79
2022/10/03 20:45:32;;;;;;;11.15;4.53;;;13.10;99.90;;;;;;10472587;28;20723;-78
2022/10/03 20:50:39;;;;;;;10.95;4.45;;;12.90;99.90;;;;;;10481699;28;20551;-78
2022/10/03 20:55:49;;;;;;;8.15;4.00;;;12.80;99.90;;;;;;10479263;28;20052;-78
2022/10/03 21:00:59;;;;;;;8.27;3.90;;;12.60;99.90;;;;;;10426298;28;20099;-77
2022/10/03 21:06:04;;;;;;;8.63;4.00;;;12.50;99.90;;;;;;10459012;28;20123;-77
2022/10/03 21:11:20;;;;;;;10.45;4.95;;;12.60;99.90;;;;;;10499090;28;20410;-78
2022/10/03 21:16:28;;;;;;;9.90;4.32;;;12.30;99.90;;;;;;10502111;28;20477;-78
2022/10/03 21:21:35;;;;;;;14.73;6.63;;;12.20;99.90;;;;;;10490429;28;20487;-78
2022/10/03 21:26:44;;;;;;;11.85;6.72;;;12.10;99.90;;;;;;10487649;28;20068;-77
2022/10/03 21:31:57;;;;;;;10.75;5.85;;;12.00;99.90;;;;;;10497386;28;20089;-77
2022/10/03 21:37:12;;;;;;;11.57;6.30;;;12.10;99.90;;;;;;10490604;28;20474;-78
2022/10/03 21:42:22;;;;;;;12.73;7.05;;;12.10;99.90;;;;;;10471895;28;20374;-78
2022/10/03 21:47:42;;;;;;;11.77;7.50;;;12.10;99.90;;;;;;10493825;28;20053;-77
2022/10/03 21:53:04;;;;;;;10.65;6.93;;;12.10;99.90;;;;;;10496779;28;20049;-77
2022/10/03 21:58:23;;;;;;;14.88;7.00;;;12.10;99.90;;;;;;10486560;28;20401;-77
